Time;durP1;ratioP1;P1;durP2;ratioP2;P2;SDS_P1;SDS_P2;PMS_P1;PMS_P2;Temp;Humidity;BMP_temperature;BMP_pressure;BME280_temperature;BME280_humidity;BME280_pressure;Samples;Min_cycle;Max_cycle;Signal;HPM_P1;HPM_P2
2021/05/11 00:02:06;;;;;;;1.83;1.83;;;16.90;54.30;;;;;;4975208;28;20276;-85
2021/05/11 00:04:32;;;;;;;1.63;1.63;;;17.00;54.30;;;;;;4975257;28;20176;-84
2021/05/11 00:06:58;;;;;;;1.73;1.63;;;17.00;54.50;;;;;;4975005;28;20173;-85
2021/05/11 00:09:24;;;;;;;3.90;2.20;;;17.10;54.60;;;;;;4977666;28;20992;-86
2021/05/11 00:11:49;;;;;;;1.60;1.60;;;17.10;54.90;;;;;;4977980;28;20197;-85
2021/05/11 00:14:15;;;;;;;1.63;1.63;;;16.70;55.70;;;;;;4977850;28;20178;-86
2021/05/11 00:16:40;;;;;;;1.40;1.40;;;16.80;55.70;;;;;;4975319;28;20275;-85
2021/05/11 00:19:10;;;;;;;1.70;1.70;;;16.80;55.50;;;;;;4974912;28;20633;-86
2021/05/11 00:21:36;;;;;;;2.03;1.87;;;16.70;55.80;;;;;;4974901;28;20210;-86
2021/05/11 00:24:01;;;;;;;2.13;1.93;;;16.70;56.90;;;;;;4974777;28;20413;-86
2021/05/11 00:26:27;;;;;;;1.90;1.90;;;16.60;57.00;;;;;;4957725;28;20185;-85
2021/05/11 00:28:53;;;;;;;2.27;1.80;;;16.60;57.00;;;;;;4974703;28;20170;-86
2021/05/11 00:31:18;;;;;;;2.20;2.10;;;16.50;57.10;;;;;;4974699;28;20162;-86
2021/05/11 00:33:44;;;;;;;2.30;1.73;;;16.40;57.40;;;;;;4957465;28;20261;-85
2021/05/11 00:36:09;;;;;;;1.90;1.80;;;16.20;58.10;;;;;;4974693;28;20173;-86
2021/05/11 00:38:35;;;;;;;1.50;1.50;;;16.20;59.10;;;;;;4974778;28;20177;-86
2021/05/11 00:41:00;;;;;;;1.90;1.80;;;16.20;59.50;;;;;;4957116;28;20209;-86
2021/05/11 00:43:26;;;;;;;2.00;2.00;;;16.20;58.80;;;;;;4957224;28;20189;-86
2021/05/11 00:45:52;;;;;;;2.33;2.13;;;16.10;59.80;;;;;;4957217;28;20182;-86
2021/05/11 00:48:17;;;;;;;2.20;2.17;;;16.00;59.70;;;;;;4974420;28;20201;-85
2021/05/11 00:50:43;;;;;;;1.70;1.70;;;15.90;61.20;;;;;;4974461;28;20178;-85
2021/05/11 00:53:09;;;;;;;2.20;2.10;;;15.90;62.50;;;;;;4974443;28;20176;-85
2021/05/11 00:55:34;;;;;;;2.50;2.50;;;15.90;62.50;;;;;;4974317;28;20264;-85
2021/05/11 00:58:00;;;;;;;2.43;2.43;;;15.90;64.20;;;;;;4974295;28;20421;-84
2021/05/11 01:00:26;;;;;;;3.00;2.90;;;15.90;64.00;;;;;;4974155;28;20225;-84
2021/05/11 01:02:52;;;;;;;2.27;2.20;;;15.80;65.00;;;;;;4956415;28;20429;-85
2021/05/11 01:05:17;;;;;;;2.83;2.70;;;15.80;65.40;;;;;;4974219;28;20166;-84
2021/05/11 01:07:46;;;;;;;3.03;2.93;;;15.70;66.10;;;;;;4973935;28;20221;-85
2021/05/11 01:10:12;;;;;;;3.33;3.13;;;15.70;67.50;;;;;;4974173;28;20261;-85
2021/05/11 01:12:38;;;;;;;2.30;2.30;;;15.60;68.90;;;;;;4974093;28;20867;-85
2021/05/11 01:15:04;;;;;;;3.43;3.33;;;15.70;68.50;;;;;;4973953;28;20264;-85
2021/05/11 01:17:34;;;;;;;2.90;2.90;;;15.60;69.90;;;;;;4973907;28;20537;-86
2021/05/11 01:20:02;;;;;;;3.10;3.10;;;15.50;70.90;;;;;;4974002;28;20901;-86
2021/05/11 01:22:44;;;;;;;3.03;3.03;;;15.50;72.00;;;;;;4956452;28;21009;-86
2021/05/11 01:25:18;;;;;;;3.10;3.00;;;15.50;72.50;;;;;;4973869;28;20488;-86
2021/05/11 01:30:32;;;;;;;3.30;3.30;;;15.00;73.40;;;;;;4974094;28;20405;-85
2021/05/11 01:43:49;;;;;;;3.07;3.07;;;15.40;75.70;;;;;;4973753;28;20176;-85
2021/05/11 01:44:04;;;;;;;3.23;3.20;;;15.40;76.70;;;;;;4943754;28;20452;-86
2021/05/11 01:49:33;;;;;;;3.70;3.60;;;15.40;77.30;;;;;;4973824;28;20424;-86
2021/05/11 02:24:20;;;;;;;4.53;4.33;;;15.10;79.70;;;;;;4977018;28;20401;-86
2021/05/11 02:26:46;;;;;;;5.47;5.37;;;15.10;80.40;;;;;;4976978;28;20932;-86
2021/05/11 02:29:11;;;;;;;5.17;5.07;;;15.10;81.10;;;;;;4976931;28;20170;-86
2021/05/11 02:31:37;;;;;;;5.20;5.00;;;15.00;81.60;;;;;;4976962;28;20257;-86
2021/05/11 02:34:03;;;;;;;5.90;5.70;;;15.10;81.90;;;;;;4976902;28;20622;-86
2021/05/11 02:36:28;;;;;;;5.87;5.67;;;15.10;81.90;;;;;;4976807;28;20666;-86
2021/05/11 02:38:54;;;;;;;4.93;4.80;;;15.10;81.00;;;;;;4976752;28;20178;-86
2021/05/11 02:41:19;;;;;;;5.83;5.13;;;15.10;78.80;;;;;;4976707;28;20206;-86
2021/05/11 02:43:45;;;;;;;5.10;5.00;;;15.10;79.30;;;;;;4976702;28;20554;-85
2021/05/11 02:46:11;;;;;;;6.20;5.80;;;15.50;81.40;;;;;;4959568;28;20626;-86
2021/05/11 02:48:36;;;;;;;5.77;5.57;;;14.90;81.30;;;;;;4976713;28;20417;-86
2021/05/11 02:51:02;;;;;;;5.73;5.40;;;14.90;82.20;;;;;;4976572;28;20681;-85
2021/05/11 02:53:27;;;;;;;5.90;5.80;;;14.80;82.90;;;;;;4959332;28;20516;-86
2021/05/11 02:55:53;;;;;;;6.70;6.20;;;14.90;83.10;;;;;;4976358;28;20535;-85
2021/05/11 02:58:18;;;;;;;6.33;6.13;;;14.90;83.70;;;;;;4976278;28;20244;-86
2021/05/11 03:00:45;;;;;;;6.50;6.20;;;14.80;83.40;;;;;;4958912;28;20688;-86
2021/05/11 03:03:10;;;;;;;6.63;6.30;;;14.80;83.40;;;;;;4976220;28;20176;-86
2021/05/11 03:05:36;;;;;;;6.43;6.13;;;14.60;83.00;;;;;;4976201;28;20414;-86
2021/05/11 03:08:02;;;;;;;6.53;6.30;;;14.70;82.80;;;;;;4976000;28;20697;-85
2021/05/11 03:10:27;;;;;;;6.57;6.17;;;14.70;83.50;;;;;;4958782;28;20174;-87
2021/05/11 03:12:53;;;;;;;7.93;7.53;;;14.60;83.10;;;;;;4958822;28;20177;-86
2021/05/11 03:15:18;;;;;;;6.77;6.57;;;14.80;83.70;;;;;;4958797;28;20578;-86
2021/05/11 03:17:44;;;;;;;7.50;7.10;;;15.00;83.60;;;;;;4976152;28;20538;-86
2021/05/11 03:20:11;;;;;;;7.10;6.77;;;14.20;82.20;;;;;;4975996;28;20173;-85
2021/05/11 03:22:37;;;;;;;7.73;7.23;;;14.90;83.00;;;;;;4976049;28;20707;-86
2021/05/11 03:25:03;;;;;;;8.27;7.77;;;14.90;82.90;;;;;;4958432;28;20425;-85
2021/05/11 03:27:29;;;;;;;7.53;7.07;;;14.90;83.00;;;;;;4976064;28;20534;-85
2021/05/11 03:29:54;;;;;;;7.50;6.90;;;14.90;83.60;;;;;;4958599;28;20421;-86
2021/05/11 03:32:20;;;;;;;7.67;7.17;;;14.90;83.40;;;;;;4975965;28;20579;-85
2021/05/11 03:34:46;;;;;;;6.90;6.60;;;14.90;83.30;;;;;;4958255;28;20195;-85
2021/05/11 03:37:11;;;;;;;7.50;7.00;;;14.90;83.10;;;;;;4958294;28;20178;-85
2021/05/11 03:39:39;;;;;;;7.33;6.93;;;14.80;82.40;;;;;;4975658;28;20534;-86
2021/05/11 03:42:28;;;;;;;7.73;7.23;;;13.70;81.00;;;;;;4958207;28;20213;-86
2021/05/11 03:44:57;;;;;;;7.17;6.77;;;14.90;82.60;;;;;;4976059;28;20422;-85
2021/05/11 03:47:24;;;;;;;7.73;7.23;;;14.40;82.40;;;;;;4979907;28;20427;-85
2021/05/11 03:49:50;;;;;;;9.03;8.43;;;14.80;82.40;;;;;;4979965;28;20465;-85
2021/05/11 03:52:16;;;;;;;8.33;7.83;;;15.00;83.50;;;;;;4980829;28;20410;-85
2021/05/11 03:54:42;;;;;;;9.53;7.67;;;14.90;83.00;;;;;;4975694;28;20170;-85
2021/05/11 03:57:07;;;;;;;7.63;7.27;;;14.80;83.20;;;;;;4975141;28;20209;-85
2021/05/11 03:59:35;;;;;;;9.70;9.07;;;14.80;83.40;;;;;;4974799;28;20453;-86
2021/05/11 04:02:00;;;;;;;10.60;9.90;;;14.80;83.70;;;;;;4973050;28;20205;-86
2021/05/11 04:04:26;;;;;;;10.67;9.97;;;14.80;83.80;;;;;;4975001;28;20422;-86
2021/05/11 04:06:51;;;;;;;13.50;12.37;;;14.80;84.00;;;;;;4957868;28;20181;-86
2021/05/11 04:16:58;;;;;;;12.93;11.60;;;14.80;83.90;;;;;;4975200;28;20538;-85
2021/05/11 04:19:24;;;;;;;12.73;11.40;;;14.50;84.00;;;;;;4975188;28;20417;-86
2021/05/11 04:21:49;;;;;;;13.60;12.30;;;14.80;84.60;;;;;;4974976;28;20487;-85
2021/05/11 04:24:33;;;;;;;13.10;12.00;;;14.70;84.60;;;;;;4974932;28;20170;-86
2021/05/11 04:26:58;;;;;;;13.37;12.17;;;14.10;84.20;;;;;;4974600;28;20515;-87
2021/05/11 04:29:24;;;;;;;13.73;12.53;;;14.60;85.70;;;;;;4958013;28;20414;-86
2021/05/11 04:31:50;;;;;;;15.57;13.73;;;14.60;86.10;;;;;;4975258;28;20189;-86
2021/05/11 04:34:15;;;;;;;14.33;13.23;;;14.60;86.20;;;;;;4974934;28;20602;-85
2021/05/11 04:36:41;;;;;;;15.90;14.40;;;14.60;86.30;;;;;;4269357;28;10000790;-87
2021/05/11 04:39:06;;;;;;;15.00;13.50;;;14.60;86.00;;;;;;4952985;29;20177;-86
2021/05/11 04:41:32;;;;;;;14.73;13.23;;;15.90;87.60;;;;;;4936039;29;20221;-86
2021/05/11 04:44:02;;;;;;;13.40;12.40;;;14.00;85.00;;;;;;4952877;29;20171;-87
2021/05/11 04:46:39;;;;;;;16.17;14.67;;;14.70;86.20;;;;;;4953168;29;20182;-87
2021/05/11 04:49:05;;;;;;;14.40;13.20;;;14.60;85.10;;;;;;4953550;29;20493;-87
2021/05/11 04:51:32;;;;;;;16.47;14.93;;;14.40;85.90;;;;;;4952730;29;20513;-87
2021/05/11 04:53:58;;;;;;;16.07;14.70;;;14.40;85.70;;;;;;4936411;28;20266;-87
2021/05/11 04:56:26;;;;;;;15.90;14.27;;;14.70;86.20;;;;;;4954914;28;20913;-87
2021/05/11 04:58:52;;;;;;;17.90;16.10;;;15.00;86.50;;;;;;4935086;29;20459;-86
2021/05/11 05:01:17;;;;;;;17.77;15.43;;;16.20;88.60;;;;;;4953541;29;20618;-86
2021/05/11 05:03:46;;;;;;;18.03;16.07;;;14.60;87.00;;;;;;4952958;29;20551;-86
2021/05/11 05:06:12;;;;;;;19.67;16.20;;;14.50;87.50;;;;;;4953644;29;20266;-86
2021/05/11 05:08:37;;;;;;;18.47;16.57;;;14.10;86.40;;;;;;4952455;29;20557;-87
2021/05/11 05:11:03;;;;;;;18.93;17.03;;;13.60;84.70;;;;;;4954925;29;20185;-87
2021/05/11 05:13:29;;;;;;;20.53;16.50;;;14.70;86.90;;;;;;4955192;29;20526;-87
2021/05/11 05:15:56;;;;;;;16.93;15.53;;;14.70;85.90;;;;;;4937848;29;20237;-86
2021/05/11 05:18:22;;;;;;;16.33;14.70;;;14.50;84.80;;;;;;4955053;29;20530;-87
2021/05/11 05:20:52;;;;;;;17.90;16.00;;;14.70;86.00;;;;;;4937885;29;20470;-87
2021/05/11 05:23:20;;;;;;;20.37;16.67;;;14.50;85.40;;;;;;4954965;29;20418;-86
2021/05/11 05:25:50;;;;;;;19.87;17.87;;;14.70;86.20;;;;;;4937518;29;20433;-87
2021/05/11 05:28:16;;;;;;;17.63;15.73;;;14.70;85.60;;;;;;4947369;28;20473;-86
2021/05/11 05:30:41;;;;;;;17.20;15.60;;;14.70;84.90;;;;;;4960684;28;20462;-86
2021/05/11 05:33:07;;;;;;;17.30;15.60;;;14.90;85.70;;;;;;4970769;28;20178;-86
2021/05/11 05:35:35;;;;;;;16.03;14.50;;;14.80;85.20;;;;;;4955424;28;20711;-84
2021/05/11 05:38:01;;;;;;;16.13;14.53;;;14.30;84.80;;;;;;4954806;29;20209;-87
2021/05/11 05:40:27;;;;;;;16.07;14.40;;;14.90;84.60;;;;;;4937749;29;20799;-86
2021/05/11 05:42:53;;;;;;;16.60;15.00;;;14.90;83.90;;;;;;4954462;29;20233;-86
2021/05/11 05:45:19;;;;;;;15.93;14.60;;;14.30;83.50;;;;;;4954295;29;20411;-87
2021/05/11 05:47:50;;;;;;;14.73;13.43;;;15.10;84.20;;;;;;4956062;28;21038;-87
2021/05/11 05:50:28;;;;;;;14.57;13.37;;;16.10;85.30;;;;;;4960542;29;20948;-87
2021/05/11 05:53:13;;;;;;;15.33;13.87;;;14.60;81.60;;;;;;4940904;29;20426;-87
2021/05/11 05:55:38;;;;;;;14.40;13.20;;;15.20;81.90;;;;;;4958750;29;20465;-88
2021/05/11 05:58:04;;;;;;;14.07;12.97;;;16.60;84.30;;;;;;4958419;29;20426;-87
2021/05/11 06:00:30;;;;;;;13.00;11.83;;;15.40;81.20;;;;;;4958200;29;20185;-87
2021/05/11 06:03:06;;;;;;;12.73;11.50;;;16.10;79.40;;;;;;4618193;28;10000452;-87
2021/05/11 06:05:33;;;;;;;14.37;13.00;;;15.10;75.20;;;;;;4975589;28;20169;-85
2021/05/11 06:07:59;;;;;;;14.53;13.40;;;14.80;74.30;;;;;;4976853;28;20468;-88
2021/05/11 06:10:29;;;;;;;12.67;11.77;;;16.20;77.20;;;;;;4957573;28;20781;-87
2021/05/11 06:13:13;;;;;;;12.00;10.90;;;16.30;76.80;;;;;;4957794;28;20189;-89
2021/05/11 06:18:23;;;;;;;9.67;9.17;;;18.40;76.10;;;;;;4975351;28;20479;-88
2021/05/11 06:20:49;;;;;;;7.77;7.47;;;20.60;74.50;;;;;;4975736;28;20417;-85
2021/05/11 06:23:14;;;;;;;9.40;8.77;;;18.70;64.10;;;;;;4957711;28;20264;-85
2021/05/11 06:25:44;;;;;;;8.60;8.03;;;18.20;66.30;;;;;;4967270;28;20174;-86
2021/05/11 06:28:09;;;;;;;8.60;8.10;;;21.30;66.70;;;;;;4951384;29;20237;-87
2021/05/11 06:30:35;;;;;;;8.27;7.87;;;20.20;63.30;;;;;;4954110;29;20418;-87
2021/05/11 06:33:01;;;;;;;8.47;7.73;;;19.70;61.60;;;;;;4955204;29;20697;-87
2021/05/11 06:35:29;;;;;;;8.53;7.80;;;19.30;62.20;;;;;;4953370;29;20210;-85
2021/05/11 06:37:58;;;;;;;8.80;8.30;;;17.50;60.40;;;;;;4985668;28;20222;-87
2021/05/11 06:40:28;;;;;;;6.73;6.23;;;18.60;62.30;;;;;;4964572;28;20414;-86
2021/05/11 06:42:55;;;;;;;8.40;7.60;;;21.60;67.20;;;;;;4974128;28;20487;-86
2021/05/11 06:48:10;;;;;;;6.53;6.20;;;17.60;64.20;;;;;;4974244;28;20503;-86
2021/05/11 06:52:39;;;;;;;6.53;6.13;;;15.60;62.80;;;;;;4973587;28;20505;-85
2021/05/11 06:53:44;;;;;;;5.90;5.60;;;17.20;66.40;;;;;;4974571;28;20438;-84
2021/05/11 06:56:12;;;;;;;6.83;6.20;;;17.10;67.50;;;;;;4974363;28;20414;-86
2021/05/11 06:58:38;;;;;;;9.07;8.53;;;16.70;67.70;;;;;;4958190;28;20492;-88
2021/05/11 07:01:05;;;;;;;8.77;8.00;;;16.00;67.80;;;;;;4974619;28;20468;-88
2021/05/11 07:03:31;;;;;;;9.13;7.60;;;15.40;77.60;;;;;;4973697;28;20492;-88
2021/05/11 07:05:58;;;;;;;13.10;11.97;;;15.30;78.70;;;;;;4977044;28;20429;-90
2021/05/11 07:08:35;;;;;;;8.30;7.63;;;16.30;79.30;;;;;;4972703;28;20597;-89
2021/05/11 07:11:12;;;;;;;7.73;7.10;;;16.20;77.40;;;;;;4973958;28;20417;-89
2021/05/11 07:13:38;;;;;;;9.03;8.33;;;19.10;83.10;;;;;;4975734;28;20929;-89
2021/05/11 07:16:04;;;;;;;8.80;7.90;;;15.90;76.40;;;;;;4973527;28;20424;-89
2021/05/11 07:18:32;;;;;;;8.03;7.43;;;16.00;78.40;;;;;;4956829;28;20576;-87
2021/05/11 07:21:00;;;;;;;7.40;6.97;;;16.00;74.80;;;;;;4953455;28;20236;-87
2021/05/11 07:23:27;;;;;;;7.10;6.60;;;16.00;75.50;;;;;;4970601;28;20428;-89
2021/05/11 07:26:08;;;;;;;8.03;7.30;;;15.50;72.70;;;;;;4954492;28;20834;-88
2021/05/11 07:28:48;;;;;;;6.07;5.43;;;16.70;74.30;;;;;;4956232;28;20583;-88
2021/05/11 07:31:15;;;;;;;6.60;6.20;;;16.10;70.50;;;;;;4973184;28;20409;-88
2021/05/11 07:33:49;;;;;;;6.07;5.73;;;16.30;69.40;;;;;;4975603;28;20416;-85
2021/05/11 07:36:15;;;;;;;6.40;5.80;;;17.70;72.30;;;;;;4974737;28;20896;-85
2021/05/11 07:38:42;;;;;;;7.90;6.40;;;16.80;71.00;;;;;;4968489;28;20425;-85
2021/05/11 07:41:08;;;;;;;5.47;5.17;;;16.40;69.10;;;;;;4954168;28;20979;-85
2021/05/11 07:43:39;;;;;;;5.10;4.80;;;17.20;68.90;;;;;;4936712;28;20483;-85
2021/05/11 08:15:36;;;;;;;5.33;5.13;;;19.20;55.30;;;;;;4972670;28;20990;-87
2021/05/11 08:29:18;;;;;;;4.73;4.43;;;20.70;56.30;;;;;;4953277;29;20465;-89
2021/05/11 08:31:44;;;;;;;4.70;4.40;;;18.20;55.00;;;;;;4954216;28;20433;-89
2021/05/11 08:34:10;;;;;;;5.00;4.80;;;21.20;56.20;;;;;;4954438;28;20257;-90
2021/05/11 08:36:36;;;;;;;4.93;4.63;;;19.90;54.60;;;;;;4975359;28;20248;-89
2021/05/11 08:39:04;;;;;;;5.20;5.10;;;19.50;55.00;;;;;;4961315;28;20562;-90
2021/05/11 08:41:29;;;;;;;6.13;4.43;;;20.00;55.90;;;;;;4963310;28;20483;-89
2021/05/11 08:43:55;;;;;;;5.37;5.00;;;22.80;57.30;;;;;;4960925;28;20521;-88
2021/05/11 08:46:21;;;;;;;4.97;4.67;;;23.00;57.30;;;;;;4966599;28;20194;-87
2021/05/11 08:48:49;;;;;;;4.50;4.23;;;19.10;53.50;;;;;;4975292;28;20173;-85
2021/05/11 08:51:21;;;;;;;5.63;5.20;;;20.00;53.90;;;;;;4955148;29;20178;-87
2021/05/11 09:16:34;;;;;;;6.60;6.17;;;18.90;56.70;;;;;;4628806;28;9999839;-84
2021/05/11 09:31:27;;;;;;;6.13;5.73;;;18.90;57.20;;;;;;4949652;29;20437;-85
2021/05/11 10:13:34;;;;;;;5.60;5.20;;;19.60;52.40;;;;;;4966843;29;20441;-90
2021/05/11 10:44:31;;;;;;;9.10;8.60;;;21.70;62.30;;;;;;4954166;29;20418;-87
2021/05/11 10:47:03;;;;;;;6.50;5.90;;;19.20;55.80;;;;;;4974651;29;20455;-88
2021/05/11 10:49:40;;;;;;;5.53;5.33;;;19.00;55.70;;;;;;4951490;29;20517;-88
2021/05/11 10:52:22;;;;;;;6.53;6.13;;;19.00;55.30;;;;;;4947048;29;20426;-89
2021/05/11 10:55:09;;;;;;;8.43;7.73;;;18.90;55.70;;;;;;4949215;29;20555;-88
2021/05/11 10:57:50;;;;;;;6.63;6.33;;;18.70;56.10;;;;;;4948672;29;20453;-90
2021/05/11 11:03:24;;;;;;;7.23;6.83;;;19.40;61.80;;;;;;4967974;29;20537;-87
2021/05/11 11:05:55;;;;;;;8.80;8.00;;;18.50;61.60;;;;;;4966003;29;20489;-91
2021/05/11 11:08:34;;;;;;;8.37;7.77;;;22.30;68.80;;;;;;4956240;29;20477;-89
2021/05/11 11:11:23;;;;;;;10.47;8.20;;;17.50;60.10;;;;;;4969778;28;20927;-88
2021/05/11 11:13:53;;;;;;;8.43;7.83;;;19.00;63.00;;;;;;4978903;28;20972;-89
2021/05/11 11:16:21;;;;;;;7.90;7.30;;;16.90;59.80;;;;;;4962472;28;20550;-89
2021/05/11 11:18:47;;;;;;;8.20;7.60;;;17.20;59.60;;;;;;4964478;28;20500;-88
2021/05/11 11:24:31;;;;;;;13.87;7.50;;;18.10;62.10;;;;;;5165455;23;20485;-89
2021/05/11 11:27:05;;;;;;;8.00;7.30;;;19.10;65.10;;;;;;4992746;28;20445;-89
2021/05/11 11:29:31;;;;;;;8.60;8.00;;;20.50;64.60;;;;;;4992604;28;20413;-90
2021/05/11 11:32:05;;;;;;;7.80;7.40;;;18.40;72.30;;;;;;4989312;28;20429;-90
2021/05/11 11:34:36;;;;;;;12.10;11.10;;;20.40;64.80;;;;;;4968485;28;20453;-87
2021/05/11 11:37:10;;;;;;;37.60;29.60;;;18.10;63.20;;;;;;4971422;28;20468;-88
2021/05/11 11:39:53;;;;;;;8.60;8.20;;;18.30;60.80;;;;;;4972630;28;20425;-89
2021/05/11 11:42:33;;;;;;;13.43;12.13;;;20.80;67.90;;;;;;4974415;28;20500;-91
2021/05/11 11:45:00;;;;;;;9.77;9.03;;;18.50;60.80;;;;;;4968738;28;20445;-87
2021/05/11 11:47:28;;;;;;;8.50;7.73;;;19.60;65.90;;;;;;4987827;28;20913;-87
2021/05/11 11:50:06;;;;;;;15.93;13.27;;;20.50;62.80;;;;;;4974323;28;20401;-90
2021/05/11 11:52:41;;;;;;;9.53;8.87;;;21.60;64.40;;;;;;4973067;28;20421;-90
2021/05/11 11:57:56;;;;;;;15.40;13.87;;;17.70;60.20;;;;;;4987766;28;20441;-86
2021/05/11 12:00:33;;;;;;;14.90;13.53;;;19.10;64.20;;;;;;4969329;28;20418;-90
2021/05/11 12:03:07;;;;;;;8.60;8.07;;;21.60;67.50;;;;;;4989796;28;20492;-91
2021/05/11 12:05:42;;;;;;;17.63;15.80;;;18.80;59.40;;;;;;4968324;28;20421;-91
2021/05/11 12:10:46;;;;;;;8.27;7.60;;;21.00;59.80;;;;;;4986550;28;20416;-85
2021/05/11 12:13:13;;;;;;;7.87;7.47;;;18.30;60.10;;;;;;4976686;28;20413;-87
2021/05/11 12:15:41;;;;;;;7.33;6.93;;;17.50;59.90;;;;;;4976539;28;20421;-86
2021/05/11 12:18:17;;;;;;;8.07;7.67;;;17.80;71.30;;;;;;4976535;28;20402;-86
2021/05/11 12:20:43;;;;;;;7.13;6.73;;;18.40;73.70;;;;;;4976471;28;20419;-84
2021/05/11 12:23:14;;;;;;;7.60;7.20;;;17.50;74.50;;;;;;4975447;28;20944;-86
2021/05/11 12:25:53;;;;;;;7.60;7.30;;;18.10;72.50;;;;;;4976166;28;20496;-87
2021/05/11 12:28:38;;;;;;;9.03;8.43;;;17.40;74.10;;;;;;4634131;28;10000191;-83
2021/05/11 12:31:06;;;;;;;6.50;6.30;;;17.70;76.80;;;;;;4963270;28;20513;-86
2021/05/11 12:33:43;;;;;;;8.70;8.10;;;18.60;79.80;;;;;;4980291;28;20428;-88
2021/05/11 12:36:24;;;;;;;9.03;8.23;;;17.70;78.00;;;;;;4980115;28;20432;-88
2021/05/11 12:38:51;;;;;;;4.20;4.00;;;16.00;79.30;;;;;;4962369;28;20418;-86
2021/05/11 12:41:33;;;;;;;4.70;4.50;;;15.70;79.00;;;;;;4976566;28;20477;-87
2021/05/11 12:44:01;;;;;;;4.27;4.20;;;16.90;84.00;;;;;;4958637;28;20953;-86
2021/05/11 12:46:29;;;;;;;7.90;6.27;;;17.40;84.00;;;;;;4953193;28;20531;-85
2021/05/11 12:49:02;;;;;;;7.40;5.47;;;18.10;86.50;;;;;;4969341;28;20461;-87
2021/05/11 12:51:41;;;;;;;6.40;6.00;;;16.80;82.60;;;;;;4964916;28;20476;-88
2021/05/11 12:54:23;;;;;;;6.87;6.40;;;16.80;85.80;;;;;;4973514;28;20424;-87
2021/05/11 12:59:40;;;;;;;5.87;5.20;;;16.20;85.80;;;;;;4974603;28;20831;-86
2021/05/11 13:02:25;;;;;;;5.37;5.10;;;17.20;85.50;;;;;;4974099;28;20472;-86
2021/05/11 13:05:06;;;;;;;6.33;5.43;;;16.50;83.30;;;;;;4972356;28;20440;-88
2021/05/11 13:20:57;;;;;;;7.10;6.50;;;17.50;85.20;;;;;;4973197;28;20413;-87
2021/05/11 13:26:09;;;;;;;8.70;8.00;;;17.30;83.90;;;;;;4972194;28;20877;-85
2021/05/11 13:31:23;;;;;;;8.83;7.83;;;17.10;83.40;;;;;;4974742;28;20488;-86
2021/05/11 13:34:09;;;;;;;10.90;9.97;;;17.60;84.30;;;;;;4972282;28;20622;-86
2021/05/11 13:36:36;;;;;;;7.07;6.77;;;17.10;83.40;;;;;;4954314;28;20938;-87
2021/05/11 13:39:03;;;;;;;8.70;8.20;;;16.70;84.90;;;;;;4971648;28;20413;-87
2021/05/11 13:41:29;;;;;;;7.90;7.30;;;17.50;85.80;;;;;;4949959;28;21096;-87
2021/05/11 13:43:55;;;;;;;9.47;8.60;;;17.40;87.00;;;;;;4972264;28;20432;-87
2021/05/11 13:46:20;;;;;;;9.00;8.40;;;17.60;88.10;;;;;;4971870;28;20996;-87
2021/05/11 13:48:47;;;;;;;9.87;9.00;;;17.60;87.10;;;;;;4954499;28;20176;-87
2021/05/11 13:51:18;;;;;;;9.93;9.13;;;17.10;89.40;;;;;;4973883;28;20464;-88
2021/05/11 13:53:51;;;;;;;10.47;9.77;;;17.10;90.80;;;;;;4958342;28;20425;-88
2021/05/11 13:56:28;;;;;;;9.67;9.03;;;17.70;87.80;;;;;;4958846;28;20446;-87
2021/05/11 14:04:14;;;;;;;10.83;9.60;;;18.30;91.50;;;;;;4956757;29;20468;-87
2021/05/11 14:06:40;;;;;;;11.13;9.67;;;17.50;76.20;;;;;;4939681;29;20565;-88
2021/05/11 14:09:06;;;;;;;13.13;12.13;;;17.00;76.10;;;;;;4960394;28;20433;-87
2021/05/11 14:11:33;;;;;;;13.07;12.17;;;16.80;77.10;;;;;;4953231;28;20323;-86
2021/05/11 14:13:59;;;;;;;11.90;10.80;;;16.70;78.30;;;;;;4977314;28;20560;-88
2021/05/11 14:16:25;;;;;;;13.30;12.20;;;16.60;78.90;;;;;;4960170;28;20420;-86
2021/05/11 14:18:51;;;;;;;14.23;13.23;;;16.70;80.50;;;;;;4977801;28;20544;-88
2021/05/11 14:21:17;;;;;;;16.03;14.73;;;16.60;81.30;;;;;;4960495;28;20680;-88
2021/05/11 14:23:42;;;;;;;20.23;18.17;;;16.40;81.20;;;;;;4979426;28;20417;-89
2021/05/11 14:26:08;;;;;;;22.73;20.43;;;16.30;79.20;;;;;;4960512;28;20681;-88
2021/05/11 14:28:33;;;;;;;23.43;21.00;;;15.90;81.30;;;;;;4961770;28;20178;-87
2021/05/11 14:30:59;;;;;;;21.93;19.73;;;15.50;85.60;;;;;;4961200;28;20174;-87
2021/05/11 14:33:25;;;;;;;31.23;22.80;;;15.00;81.30;;;;;;4979665;28;20221;-88
2021/05/11 14:35:51;;;;;;;26.30;23.47;;;15.10;84.80;;;;;;4978341;28;20181;-87
2021/05/11 14:38:16;;;;;;;29.43;24.07;;;15.10;85.70;;;;;;4962527;28;20444;-88
2021/05/11 14:40:42;;;;;;;23.10;20.63;;;15.00;86.40;;;;;;4978595;28;20181;-88
2021/05/11 14:43:07;;;;;;;30.60;24.37;;;14.90;86.20;;;;;;4978396;28;20254;-85
2021/05/11 14:45:33;;;;;;;28.30;23.43;;;15.00;86.30;;;;;;4978188;28;20629;-88
2021/05/11 14:47:58;;;;;;;24.87;22.00;;;15.00;86.50;;;;;;4977623;28;20189;-87
2021/05/11 14:50:24;;;;;;;28.60;23.43;;;15.10;85.00;;;;;;4978306;28;20181;-88
2021/05/11 14:52:55;;;;;;;23.13;20.63;;;15.60;86.60;;;;;;4980985;28;20237;-89
2021/05/11 14:55:24;;;;;;;26.93;22.67;;;15.20;85.60;;;;;;4979796;28;20421;-89
2021/05/11 14:57:51;;;;;;;25.67;22.87;;;15.20;86.60;;;;;;4617648;28;10000578;-89
2021/05/11 15:00:17;;;;;;;28.23;21.83;;;15.10;85.90;;;;;;4977347;28;20182;-90
2021/05/11 15:02:43;;;;;;;21.27;19.10;;;15.30;86.00;;;;;;4978768;28;20527;-89
2021/05/11 15:05:09;;;;;;;22.00;19.80;;;15.80;85.70;;;;;;4977416;28;20417;-86
2021/05/11 15:07:35;;;;;;;22.70;20.57;;;15.40;84.70;;;;;;4977650;28;20216;-88
2021/05/11 15:10:00;;;;;;;20.70;18.70;;;16.60;86.40;;;;;;4969703;28;20455;-87
2021/05/11 15:12:26;;;;;;;22.53;18.30;;;15.60;85.60;;;;;;4963993;28;20269;-90
2021/05/11 15:14:55;;;;;;;27.03;23.17;;;13.90;82.60;;;;;;4960645;28;20237;-88
2021/05/11 15:19:50;;;;;;;29.27;21.80;;;15.10;84.60;;;;;;4961975;28;20418;-90
2021/05/11 15:22:22;;;;;;;25.23;21.50;;;15.40;85.20;;;;;;4957910;28;20464;-90
2021/05/11 15:24:50;;;;;;;28.53;23.30;;;14.40;83.60;;;;;;4968865;28;20457;-89
2021/05/11 15:27:17;;;;;;;29.90;24.77;;;16.80;89.10;;;;;;4972564;28;20844;-88
2021/05/11 15:29:43;;;;;;;29.33;24.20;;;14.80;85.10;;;;;;4965162;28;20862;-87
2021/05/11 15:32:54;;;;;;;30.53;23.00;;;14.50;83.10;;;;;;4976830;28;20405;-87
2021/05/11 15:35:32;;;;;;;25.67;23.03;;;15.10;84.80;;;;;;4961363;29;20525;-87
2021/05/11 15:38:00;;;;;;;26.90;24.03;;;15.20;85.30;;;;;;4980525;28;20441;-87
2021/05/11 15:40:36;;;;;;;31.23;25.80;;;15.70;86.80;;;;;;4981435;28;20418;-89
2021/05/11 15:43:03;;;;;;;26.00;23.20;;;14.00;84.70;;;;;;4966728;28;20468;-87
2021/05/11 15:45:29;;;;;;;29.90;24.60;;;15.20;86.20;;;;;;4978444;28;20468;-86
2021/05/11 15:47:56;;;;;;;25.13;22.30;;;15.20;87.10;;;;;;4952641;28;20437;-87
2021/05/11 15:50:27;;;;;;;28.00;22.77;;;14.80;85.50;;;;;;4975283;28;20468;-88
2021/05/11 15:52:55;;;;;;;26.93;22.17;;;15.00;84.40;;;;;;4958827;28;20500;-88
2021/05/11 15:55:22;;;;;;;24.97;22.40;;;15.90;85.10;;;;;;4977424;28;20574;-87
2021/05/11 15:57:50;;;;;;;25.70;22.50;;;15.50;84.00;;;;;;4976705;28;20829;-86
2021/05/11 16:00:17;;;;;;;29.03;23.80;;;13.70;81.90;;;;;;4974136;28;20412;-86
2021/05/11 16:02:42;;;;;;;26.10;23.30;;;15.30;85.30;;;;;;4970050;28;20496;-86
2021/05/11 16:05:08;;;;;;;26.77;23.50;;;15.40;86.30;;;;;;4957969;28;20425;-86
2021/05/11 16:07:35;;;;;;;25.80;22.87;;;15.30;86.60;;;;;;4977618;28;20166;-87
2021/05/11 16:10:02;;;;;;;26.00;23.40;;;15.50;85.80;;;;;;4959955;28;20435;-86
2021/05/11 16:12:28;;;;;;;30.80;25.20;;;15.30;85.20;;;;;;4979590;28;20413;-87
2021/05/11 16:14:54;;;;;;;33.50;28.53;;;15.50;84.40;;;;;;4963100;28;20449;-88
2021/05/11 16:17:19;;;;;;;25.07;22.37;;;15.50;85.00;;;;;;4983691;28;20591;-87
2021/05/11 16:19:50;;;;;;;26.33;23.53;;;15.50;82.60;;;;;;4982837;28;20719;-89
2021/05/11 16:22:16;;;;;;;31.00;24.20;;;15.70;82.60;;;;;;4963278;28;20716;-86
2021/05/11 16:24:41;;;;;;;29.30;25.10;;;15.70;82.70;;;;;;4976360;28;20445;-87
2021/05/11 16:27:07;;;;;;;35.67;24.53;;;15.70;82.90;;;;;;4976940;28;20170;-88
2021/05/11 16:29:33;;;;;;;32.20;24.70;;;15.70;82.90;;;;;;4960761;28;20173;-87
2021/05/11 16:32:00;;;;;;;31.10;26.00;;;15.70;84.20;;;;;;4976824;28;20619;-88
2021/05/11 16:34:26;;;;;;;36.53;25.67;;;15.80;82.90;;;;;;4962560;28;20420;-88
2021/05/11 16:36:53;;;;;;;36.73;27.50;;;15.80;83.10;;;;;;4977130;28;20445;-88
2021/05/11 16:39:19;;;;;;;36.63;25.53;;;15.80;82.50;;;;;;4976763;28;20417;-88
2021/05/11 16:41:46;;;;;;;40.53;28.43;;;15.80;82.60;;;;;;4977129;28;20556;-87
2021/05/11 16:44:12;;;;;;;37.30;28.90;;;15.80;83.20;;;;;;4961776;28;20177;-87
2021/05/11 16:46:38;;;;;;;38.70;28.40;;;15.60;83.30;;;;;;4966306;28;20796;-89
2021/05/11 16:49:04;;;;;;;41.60;30.00;;;15.60;83.70;;;;;;4988849;28;20428;-88
2021/05/11 16:51:30;;;;;;;37.63;30.37;;;15.50;83.50;;;;;;4991419;28;20409;-88